Time;durP1;ratioP1;P1;durP2;ratioP2;P2;SDS_P1;SDS_P2;PMS_P1;PMS_P2;Temp;Humidity;BMP_temperature;BMP_pressure;BME280_temperature;BME280_humidity;BME280_pressure;Samples;Min_cycle;Max_cycle;Signal;HPM_P1;HPM_P2
2022/12/23 00:01:42;;;;;;;10.07;8.93;;;;;;;11.74;78.08;98408.44;4991231;28;20054;-80
2022/12/23 00:04:08;;;;;;;8.80;7.90;;;;;;;11.76;78.05;98405.66;4990994;28;20487;-80
2022/12/23 00:06:35;;;;;;;8.57;7.50;;;;;;;11.78;78.08;98404.53;4968543;28;20150;-80
2022/12/23 00:09:02;;;;;;;9.23;7.63;;;;;;;11.80;77.90;98407.06;4986206;28;20066;-80
2022/12/23 00:11:28;;;;;;;7.78;6.85;;;;;;;11.82;77.93;98400.69;4971866;28;20054;-80
2022/12/23 00:16:46;;;;;;;7.25;6.55;;;;;;;11.86;78.00;98412.66;4971272;28;20058;-81
2022/12/23 00:19:13;;;;;;;8.80;7.78;;;;;;;11.88;77.93;98409.88;4980646;28;20137;-80
2022/12/23 00:21:39;;;;;;;8.10;7.22;;;;;;;11.89;78.04;98413.38;4987997;28;20057;-81
2022/12/23 00:24:06;;;;;;;8.77;7.28;;;;;;;11.92;78.04;98415.75;4984588;28;20160;-81
2022/12/23 00:26:32;;;;;;;9.15;6.85;;;;;;;11.92;77.87;98413.13;4990793;28;20055;-81
2022/12/23 00:28:59;;;;;;;8.70;7.80;;;;;;;11.95;77.79;98426.03;4990928;28;20061;-81
2022/12/23 00:31:25;;;;;;;8.85;6.75;;;;;;;11.96;77.84;98418.00;4991017;28;20421;-80
2022/12/23 00:33:53;;;;;;;7.45;6.65;;;;;;;11.95;78.00;98418.97;4990627;28;20525;-81
2022/12/23 00:36:26;;;;;;;10.95;7.25;;;;;;;11.96;77.91;98431.19;4990790;28;20054;-81
2022/12/23 00:44:23;;;;;;;8.13;7.30;;;;;;;12.01;77.88;98420.25;4990701;28;20497;-81
2022/12/23 00:46:50;;;;;;;8.15;7.20;;;;;;;12.03;78.02;98425.41;4990536;28;20054;-81
2022/12/23 00:52:05;;;;;;;8.88;6.85;;;;;;;12.04;77.91;98422.59;4990810;28;20054;-80
2022/12/23 00:54:31;;;;;;;6.38;5.65;;;;;;;12.06;78.05;98423.34;4990956;28;20061;-81
2022/12/23 00:56:59;;;;;;;6.90;5.50;;;;;;;12.07;77.81;98424.19;4990373;28;20508;-80
2022/12/23 00:59:25;;;;;;;5.60;5.10;;;;;;;12.07;77.85;98421.56;4990661;28;20478;-81
2022/12/23 01:07:22;;;;;;;7.75;6.28;;;;;;;12.08;77.74;98425.88;4990667;28;20054;-81
2022/12/23 01:09:49;;;;;;;6.18;5.57;;;;;;;12.09;77.84;98423.09;4990781;28;20078;-80
2022/12/23 01:12:16;;;;;;;5.93;5.25;;;;;;;12.06;77.83;98423.34;4990490;28;20508;-81
2022/12/23 01:14:43;;;;;;;5.90;5.30;;;;;;;12.08;77.77;98431.16;4973262;28;20053;-80
2022/12/23 01:17:10;;;;;;;5.35;4.85;;;;;;;12.09;77.84;98433.66;4990312;28;20469;-80
2022/12/23 01:19:36;;;;;;;6.57;5.20;;;;;;;12.07;77.82;98427.66;4990636;28;20690;-80
2022/12/23 01:22:02;;;;;;;6.57;5.43;;;;;;;12.07;77.75;98430.28;4990355;28;20061;-80
2022/12/23 01:24:30;;;;;;;5.03;4.53;;;;;;;12.08;77.91;98436.41;4990313;28;20190;-80
2022/12/23 01:26:57;;;;;;;5.85;4.80;;;;;;;12.06;77.80;98428.63;4990152;28;20061;-80
2022/12/23 01:29:24;;;;;;;6.40;4.50;;;;;;;12.07;78.01;98440.84;4990223;28;20065;-80
2022/12/23 01:31:50;;;;;;;4.30;3.90;;;;;;;12.06;78.01;98439.19;4990152;28;20128;-80
2022/12/23 01:34:17;;;;;;;3.90;3.50;;;;;;;12.07;78.00;98446.13;4990296;28;20081;-80
2022/12/23 01:36:44;;;;;;;4.10;3.70;;;;;;;12.08;78.17;98449.59;4990029;28;20058;-80
2022/12/23 01:39:10;;;;;;;3.75;3.10;;;;;;;12.09;77.98;98444.22;4990146;28;20058;-80
2022/12/23 01:44:52;;;;;;;3.42;3.13;;;;;;;12.05;77.78;98458.63;5009880;28;20064;-82
2022/12/23 01:47:28;;;;;;;6.28;4.20;;;;;;;12.09;77.89;98457.41;5010307;28;20045;-82
2022/12/23 01:50:00;;;;;;;5.03;4.15;;;;;;;12.07;77.60;98454.03;5010480;28;20070;-81
2022/12/23 01:52:28;;;;;;;5.15;3.97;;;;;;;12.10;78.03;98463.50;5010153;28;20148;-81
2022/12/23 01:54:55;;;;;;;4.93;4.28;;;;;;;12.09;77.85;98465.31;5009726;28;20058;-82
2022/12/23 01:57:22;;;;;;;4.28;3.75;;;;;;;12.09;77.99;98478.50;5010287;28;20137;-82
2022/12/23 02:05:11;;;;;;;3.38;3.08;;;;;;;12.11;78.06;98462.50;4809773;26;20141;-82
2022/12/23 02:10:46;;;;;;;3.13;2.83;;;;;;;12.08;77.77;98482.06;5013690;28;20082;-82
2022/12/23 02:16:15;;;;;;;3.63;3.33;;;;;;;12.10;77.69;98487.22;5013671;28;20050;-82
2022/12/23 02:16:28;;;;;;;4.78;4.38;;;;;;;12.15;77.73;98484.22;5013700;28;20054;-82
2022/12/23 02:19:11;;;;;;;5.63;5.07;;;;;;;12.11;77.55;98486.25;5013618;28;20054;-83
2022/12/23 02:21:58;;;;;;;5.20;4.70;;;;;;;12.10;77.83;98495.13;4996074;28;20268;-83
2022/12/23 02:24:41;;;;;;;5.43;4.93;;;;;;;12.12;77.62;98491.41;5013536;28;20097;-81
2022/12/23 02:27:14;;;;;;;6.20;5.53;;;;;;;12.14;77.67;98496.56;5013202;28;20483;-81
2022/12/23 02:30:05;;;;;;;6.88;6.10;;;;;;;12.11;77.57;98497.66;5013396;28;20375;-82
2022/12/23 02:32:38;;;;;;;7.15;6.28;;;;;;;12.13;77.57;98500.16;5013444;28;20054;-82
2022/12/23 02:35:27;;;;;;;6.38;5.78;;;;;;;12.09;77.77;98499.59;5013113;28;20053;-82
2022/12/23 02:38:03;;;;;;;6.18;5.57;;;;;;;12.10;77.71;98501.25;5013115;28;20058;-82
2022/12/23 02:40:45;;;;;;;7.20;6.40;;;;;;;12.08;77.43;98503.19;5013229;28;20418;-82
2022/12/23 02:43:22;;;;;;;6.70;5.72;;;;;;;12.10;77.73;98514.44;5013226;28;20048;-83
2022/12/23 02:45:55;;;;;;;7.43;6.15;;;;;;;12.08;77.64;98511.09;5013209;28;20064;-81
2022/12/23 02:48:38;;;;;;;6.07;5.43;;;;;;;12.07;77.61;98516.53;5012900;28;20053;-82
2022/12/23 02:51:08;;;;;;;6.60;5.90;;;;;;;12.10;77.84;98511.81;5006254;28;20050;-83
2022/12/23 02:53:40;;;;;;;5.47;4.97;;;;;;;12.10;77.85;98514.44;5013326;28;20050;-82
2022/12/23 02:56:09;;;;;;;5.68;4.82;;;;;;;12.11;77.86;98516.13;5012908;28;20045;-81
2022/12/23 02:58:43;;;;;;;4.38;3.97;;;;;;;12.10;77.84;98514.44;5012673;28;20050;-81
2022/12/23 03:01:11;;;;;;;3.65;3.22;;;;;;;12.12;77.97;98514.31;5012820;28;20161;-81
2022/12/23 03:03:44;;;;;;;3.40;3.10;;;;;;;12.11;77.92;98517.91;5012521;28;20546;-82
2022/12/23 03:06:24;;;;;;;3.33;3.03;;;;;;;12.10;77.74;98521.50;5012434;28;20486;-83
2022/12/23 03:08:54;;;;;;;5.05;4.55;;;;;;;12.11;77.76;98529.31;4995164;28;20060;-81
2022/12/23 03:11:27;;;;;;;5.30;4.80;;;;;;;12.10;77.85;98522.38;5012471;28;20130;-83
2022/12/23 03:14:09;;;;;;;6.68;6.00;;;;;;;12.09;77.79;98528.63;5012533;28;20050;-82
2022/12/23 03:16:52;;;;;;;9.23;6.85;;;;;;;12.10;77.66;98532.91;5012465;28;20053;-81
2022/12/23 03:19:38;;;;;;;8.32;7.47;;;;;;;12.10;77.61;98543.47;5011570;28;20053;-81
2022/12/23 03:22:42;;;;;;;7.97;7.15;;;;;;;12.10;77.77;98540.84;5012701;28;20049;-81
2022/12/23 03:25:17;;;;;;;;;;;;;;;12.14;77.49;98551.13;5010733;28;20129;-81
2022/12/23 03:27:49;;;;;;;13.38;6.93;;;;;;;12.16;77.47;98554.47;5012486;28;19960;-82
2022/12/23 03:30:20;;;;;;;8.32;7.05;;;;;;;12.14;77.73;98554.59;5012393;28;20141;-81
2022/12/23 03:33:11;;;;;;;9.02;7.78;;;;;;;12.08;77.56;98555.09;5012306;28;20046;-82
2022/12/23 03:35:44;;;;;;;9.15;7.85;;;;;;;12.11;77.78;98555.69;4966778;28;20058;-81
2022/12/23 03:38:14;;;;;;;8.68;7.53;;;;;;;12.11;77.88;98558.31;5012339;28;20052;-83
2022/12/23 03:40:46;;;;;;;11.00;7.82;;;;;;;12.12;77.73;98556.53;5012199;28;20144;-82
2022/12/23 03:43:47;;;;;;;10.82;8.50;;;;;;;12.10;77.78;98561.09;4994526;28;20050;-82
2022/12/23 03:46:38;;;;;;;10.25;7.97;;;;;;;12.10;77.85;98561.09;5010668;28;20096;-82
2022/12/23 03:49:14;;;;;;;10.32;8.07;;;;;;;12.12;77.70;98564.44;5011979;28;20490;-82
2022/12/23 03:51:52;;;;;;;9.40;7.97;;;;;;;12.12;77.58;98575.81;5011880;28;20549;-81
2022/12/23 03:54:26;;;;;;;9.13;7.72;;;;;;;12.10;77.56;98575.13;5012292;28;20058;-83
2022/12/23 03:57:01;;;;;;;8.50;6.72;;;;;;;12.10;77.57;98577.75;5011556;28;20054;-80
2022/12/23 03:59:32;;;;;;;7.03;6.13;;;;;;;12.11;77.40;98584.69;4994758;28;20053;-82
2022/12/23 04:02:06;;;;;;;6.68;5.57;;;;;;;12.10;77.17;98592.72;5011665;28;20058;-81
2022/12/23 04:05:11;;;;;;;5.93;5.28;;;;;;;12.05;77.13;98597.53;5011823;28;20128;-82
2022/12/23 04:10:45;;;;;;;8.13;6.60;;;;;;;12.04;77.07;98604.59;4973961;23;20056;-80
2022/12/23 04:13:11;;;;;;;9.00;7.35;;;;;;;12.01;77.08;98601.38;5011531;28;20058;-82
2022/12/23 04:15:42;;;;;;;10.30;7.57;;;;;;;11.96;76.85;98607.03;5011193;28;20065;-82
2022/12/23 04:18:09;;;;;;;8.43;7.20;;;;;;;11.95;76.96;98607.97;5011230;28;20116;-82
2022/12/23 04:20:36;;;;;;;12.68;9.00;;;;;;;11.93;76.89;98604.66;5011414;28;20105;-82
2022/12/23 04:23:03;;;;;;;9.15;7.72;;;;;;;11.90;77.04;98605.75;5011431;28;20056;-82
2022/12/23 04:25:29;;;;;;;13.70;8.93;;;;;;;11.88;77.01;98609.47;5011117;28;20058;-82
2022/12/23 04:27:56;;;;;;;11.55;9.30;;;;;;;11.86;76.97;98606.94;5010819;28;20603;-81
2022/12/23 04:30:22;;;;;;;11.52;9.05;;;;;;;11.83;76.89;98608.03;4993289;28;20065;-81
2022/12/23 04:32:56;;;;;;;13.07;9.70;;;;;;;11.82;77.00;98611.59;5011134;28;20054;-82
2022/12/23 04:35:23;;;;;;;14.23;11.65;;;;;;;11.81;76.78;98611.75;5010969;28;20066;-81
2022/12/23 04:37:49;;;;;;;15.32;11.52;;;;;;;11.80;76.94;98612.69;4993346;28;20057;-82
2022/12/23 04:40:16;;;;;;;16.33;12.38;;;;;;;11.77;76.89;98616.41;5010729;28;20490;-82
2022/12/23 04:42:42;;;;;;;15.63;11.35;;;;;;;11.76;77.04;98617.38;5010812;28;20534;-82
2022/12/23 04:45:09;;;;;;;15.35;11.95;;;;;;;11.73;76.95;98618.47;5010989;28;20057;-81
2022/12/23 04:47:35;;;;;;;18.88;12.65;;;;;;;11.72;76.91;98615.97;5010650;28;20104;-81
2022/12/23 04:50:03;;;;;;;19.02;13.43;;;;;;;11.71;77.01;98615.13;4993386;28;20109;-82
2022/12/23 04:52:29;;;;;;;17.80;13.88;;;;;;;11.71;76.94;98619.56;4993365;28;20053;-83
2022/12/23 04:54:56;;;;;;;18.50;13.50;;;;;;;11.70;77.17;98623.16;5010853;28;20105;-81
2022/12/23 04:57:22;;;;;;;20.55;13.73;;;;;;;11.69;77.12;98624.97;5010658;28;20089;-81
2022/12/23 04:59:49;;;;;;;20.98;14.60;;;;;;;11.69;77.01;98624.97;5010649;28;20418;-81
2022/12/23 05:02:15;;;;;;;19.08;15.00;;;;;;;11.69;77.18;98626.75;5010534;28;20132;-82
2022/12/23 05:04:42;;;;;;;19.42;14.23;;;;;;;11.69;76.96;98642.56;5010537;28;20058;-82
2022/12/23 05:07:08;;;;;;;19.15;14.40;;;;;;;11.67;77.15;98641.84;5010685;28;20064;-81
2022/12/23 05:09:35;;;;;;;19.77;14.98;;;;;;;11.66;76.94;98633.09;4993216;28;20064;-82
2022/12/23 05:12:01;;;;;;;19.48;15.35;;;;;;;11.66;77.44;98637.56;5010398;28;20057;-82
2022/12/23 05:14:28;;;;;;;21.25;15.65;;;;;;;11.66;76.92;98640.19;5010647;28;20058;-83
2022/12/23 05:16:55;;;;;;;24.42;16.70;;;;;;;11.65;77.07;98651.66;5010168;28;20054;-82
2022/12/23 05:19:29;;;;;;;26.98;16.27;;;;;;;11.65;77.13;98649.03;5010447;28;20400;-81
2022/12/23 05:21:55;;;;;;;20.60;15.45;;;;;;;11.65;77.16;98651.66;5010479;28;20056;-82
2022/12/23 05:24:22;;;;;;;21.70;16.02;;;;;;;11.64;76.88;98658.75;5010300;28;20057;-82
2022/12/23 05:26:48;;;;;;;21.92;16.17;;;;;;;11.64;77.15;98660.53;5010281;28;20085;-81
2022/12/23 05:29:24;;;;;;;22.92;15.65;;;;;;;11.62;77.06;98658.03;5010224;28;20050;-82
2022/12/23 05:31:51;;;;;;;24.08;17.02;;;;;;;11.62;77.13;98665.94;5010779;28;20062;-82
2022/12/23 05:34:17;;;;;;;21.38;15.88;;;;;;;11.62;77.09;98668.56;4993007;28;20145;-81
2022/12/23 05:36:44;;;;;;;22.20;15.82;;;;;;;11.60;77.29;98663.41;5010287;28;20054;-82
2022/12/23 05:39:10;;;;;;;22.48;16.83;;;;;;;11.62;77.32;98665.13;5010569;28;20057;-82
2022/12/23 05:41:36;;;;;;;23.33;16.60;;;;;;;11.63;77.28;98664.16;5010213;28;20053;-81
2022/12/23 05:44:03;;;;;;;26.10;17.10;;;;;;;11.62;77.16;98659.84;5013875;28;20066;-82
2022/12/23 05:46:30;;;;;;;22.02;16.83;;;;;;;11.63;76.88;98661.50;4996475;28;20050;-81
2022/12/23 05:48:56;;;;;;;26.08;17.35;;;;;;;11.63;77.06;98662.38;5013887;28;20085;-82
2022/12/23 05:51:23;;;;;;;22.38;17.00;;;;;;;11.64;77.22;98664.03;5014165;28;20070;-81
2022/12/23 05:53:49;;;;;;;23.10;17.52;;;;;;;11.63;77.00;98664.16;5013909;28;20050;-81
2022/12/23 05:56:16;;;;;;;24.38;17.25;;;;;;;11.63;77.02;98670.28;5014111;28;20045;-83
2022/12/23 05:58:42;;;;;;;23.40;17.42;;;;;;;11.63;76.77;98672.06;5013723;28;20454;-83
2022/12/23 06:01:09;;;;;;;26.85;18.23;;;;;;;11.63;77.07;98672.06;5013922;28;20100;-81
2022/12/23 06:03:35;;;;;;;25.25;18.15;;;;;;;11.62;77.02;98668.56;5013808;28;20469;-81
2022/12/23 06:06:02;;;;;;;23.80;18.30;;;;;;;11.61;76.98;98661.63;5013448;28;20046;-81
2022/12/23 06:08:28;;;;;;;23.48;18.13;;;;;;;11.60;77.13;98660.78;5013552;28;20057;-82
2022/12/23 06:10:55;;;;;;;23.50;18.85;;;;;;;11.62;77.09;98667.75;5013596;28;20560;-83
2022/12/23 06:13:21;;;;;;;24.55;18.05;;;;;;;11.62;76.99;98673.84;5013504;28;20116;-81
2022/12/23 06:15:48;;;;;;;22.98;17.77;;;;;;;11.63;77.14;98674.69;5013691;28;20448;-82
2022/12/23 06:18:14;;;;;;;26.13;19.67;;;;;;;11.62;77.18;98680.94;5013416;28;20116;-82
2022/12/23 06:20:44;;;;;;;27.52;19.15;;;;;;;11.60;76.89;98678.41;5013615;28;20054;-82
2022/12/23 06:23:10;;;;;;;26.50;19.58;;;;;;;11.63;76.80;98682.59;5013523;28;20120;-82
2022/12/23 06:25:37;;;;;;;27.35;19.95;;;;;;;11.63;77.03;98691.34;5013023;28;20109;-82
2022/12/23 06:28:04;;;;;;;26.80;18.70;;;;;;;11.62;77.08;98692.28;5013271;28;20081;-82
2022/12/23 06:30:30;;;;;;;25.48;18.63;;;;;;;11.62;76.95;98699.38;5013441;28;20108;-82
2022/12/23 06:32:57;;;;;;;27.30;19.95;;;;;;;11.60;76.88;98700.31;5013444;28;20418;-82
2022/12/23 06:35:23;;;;;;;29.50;20.15;;;;;;;11.61;76.86;98703.81;5013283;28;20069;-82
2022/12/23 06:37:52;;;;;;;26.02;19.35;;;;;;;11.60;76.91;98702.94;5013125;28;20054;-83
2022/12/23 06:40:18;;;;;;;23.02;18.55;;;;;;;11.63;77.03;98706.31;4995562;28;20061;-82
2022/12/23 06:42:46;;;;;;;26.60;18.98;;;;;;;11.63;76.84;98708.97;4995602;28;20573;-81
2022/12/23 06:45:12;;;;;;;24.92;19.38;;;;;;;11.62;76.95;98710.75;4995575;28;20089;-82
2022/12/23 06:47:39;;;;;;;21.83;17.00;;;;;;;11.63;76.82;98708.97;5013168;28;20045;-84
2022/12/23 06:50:05;;;;;;;22.00;17.55;;;;;;;11.63;76.86;98709.81;5012703;28;20064;-80
2022/12/23 06:52:32;;;;;;;22.25;16.45;;;;;;;11.62;76.97;98715.19;5012964;28;20057;-82
2022/12/23 06:54:59;;;;;;;19.95;15.25;;;;;;;11.62;76.77;98723.91;5012754;28;20136;-82
2022/12/23 06:57:26;;;;;;;20.17;15.23;;;;;;;11.63;76.94;98719.50;5012721;28;20068;-81
2022/12/23 06:59:52;;;;;;;18.02;13.48;;;;;;;11.62;76.85;98723.09;5012893;28;20054;-83
2022/12/23 07:02:19;;;;;;;17.05;13.98;;;;;;;11.62;76.84;98723.91;5012568;28;20136;-83
2022/12/23 07:04:45;;;;;;;15.35;12.70;;;;;;;11.61;76.89;98727.53;5012409;28;20058;-83
2022/12/23 07:07:12;;;;;;;15.68;13.13;;;;;;;11.62;76.76;98723.09;5012473;28;20061;-83
2022/12/23 07:09:38;;;;;;;17.65;12.75;;;;;;;11.60;76.79;98731.94;5012772;28;20045;-81
2022/12/23 07:12:05;;;;;;;14.63;11.25;;;;;;;11.60;76.91;98726.66;4994886;28;20112;-83
2022/12/23 07:14:31;;;;;;;11.25;9.00;;;;;;;11.59;77.07;98722.38;5012408;28;20057;-83
2022/12/23 07:16:58;;;;;;;11.35;9.25;;;;;;;11.60;76.63;98731.94;5012353;28;20054;-85
2022/12/23 07:19:24;;;;;;;13.98;9.05;;;;;;;11.60;76.73;98737.22;5012060;28;20516;-81
2022/12/23 07:21:51;;;;;;;10.98;8.48;;;;;;;11.61;76.88;98738.06;5012190;28;20085;-81
2022/12/23 07:24:17;;;;;;;10.52;8.35;;;;;;;11.61;76.77;98738.06;4995227;28;20062;-82
2022/12/23 07:26:44;;;;;;;9.68;7.95;;;;;;;11.62;76.80;98742.38;5012245;28;20057;-82
2022/12/23 07:29:10;;;;;;;9.82;8.18;;;;;;;11.62;76.98;98747.66;5012308;28;20054;-81
2022/12/23 07:31:37;;;;;;;10.27;7.90;;;;;;;11.63;76.90;98745.84;5011993;28;20046;-81
2022/12/23 07:34:07;;;;;;;9.43;7.80;;;;;;;11.65;76.77;98762.38;4994925;28;20058;-82
2022/12/23 07:36:40;;;;;;;10.18;8.02;;;;;;;11.64;76.31;98751.00;4994318;28;20058;-80
2022/12/23 07:39:14;;;;;;;10.50;8.13;;;;;;;11.68;76.64;98751.59;5011638;28;20061;-81
2022/12/23 07:44:31;;;;;;;48.78;9.68;;;;;;;11.68;76.51;98757.72;4986278;23;20527;-80
2022/12/23 07:46:57;;;;;;;26.00;9.32;;;;;;;11.68;76.54;98757.72;5010155;28;20050;-80
2022/12/23 07:49:24;;;;;;;16.65;9.32;;;;;;;11.68;76.23;98759.50;5010817;28;20121;-80
2022/12/23 07:51:50;;;;;;;16.15;8.77;;;;;;;11.67;76.36;98771.84;5010919;28;20058;-80
2022/12/23 07:54:17;;;;;;;15.43;9.20;;;;;;;11.67;76.39;98771.03;5011009;28;20128;-80
2022/12/23 07:56:43;;;;;;;18.80;9.55;;;;;;;11.67;76.42;98782.38;5010834;28;20093;-80
2022/12/23 07:59:09;;;;;;;45.80;10.57;;;;;;;11.67;76.45;98792.13;4993520;28;20058;-80
2022/12/23 08:01:36;;;;;;;38.95;9.88;;;;;;;11.68;76.23;98796.41;5010692;28;20057;-80
2022/12/23 08:04:02;;;;;;;53.03;10.43;;;;;;;11.67;76.13;98806.13;5010619;28;20523;-80
2022/12/23 08:06:29;;;;;;;48.83;9.88;;;;;;;11.66;75.81;98799.16;5010050;28;20046;-80
2022/12/23 08:08:55;;;;;;;89.20;10.88;;;;;;;11.64;75.99;98802.88;4993309;28;20054;-80
2022/12/23 08:11:22;;;;;;;60.63;9.55;;;;;;;11.63;75.79;98804.69;4993165;28;20061;-80
2022/12/23 08:13:48;;;;;;;64.68;9.43;;;;;;;11.60;75.97;98800.47;5010623;28;20057;-80
2022/12/23 08:16:15;;;;;;;69.25;9.30;;;;;;;11.59;75.94;98801.44;5010364;28;20050;-80
2022/12/23 08:18:41;;;;;;;20.98;9.23;;;;;;;11.58;76.01;98791.88;5010336;28;20539;-79
2022/12/23 08:21:13;;;;;;;17.35;8.90;;;;;;;11.55;75.82;98792.09;5010202;28;20596;-80
2022/12/23 08:23:40;;;;;;;91.45;8.32;;;;;;;11.57;76.25;98798.09;5010529;28;20058;-79
2022/12/23 08:26:10;;;;;;;65.90;8.25;;;;;;;11.56;76.07;98796.41;4992800;28;20153;-79
2022/12/23 08:28:38;;;;;;;37.25;6.30;;;;;;;11.57;75.88;98805.16;4992699;28;20057;-79
2022/12/23 08:31:15;;;;;;;17.20;5.55;;;;;;;11.52;75.47;98800.25;5009962;28;20409;-79
2022/12/23 08:33:43;;;;;;;26.67;5.68;;;;;;;11.56;75.95;98795.56;5010233;28;20496;-80
2022/12/23 08:36:13;;;;;;;16.67;5.15;;;;;;;11.55;75.79;98793.91;5010041;28;20105;-79
2022/12/23 08:38:48;;;;;;;13.85;4.93;;;;;;;11.55;75.95;98801.81;5009967;28;20077;-79
2022/12/23 08:41:18;;;;;;;18.50;6.00;;;;;;;11.54;75.83;98794.84;5009929;28;20065;-79
2022/12/23 08:43:44;;;;;;;36.70;6.75;;;;;;;11.55;76.05;98794.72;5009828;28;20361;-79
2022/12/23 08:46:11;;;;;;;20.88;6.13;;;;;;;11.53;75.99;98801.91;5009669;28;20081;-79
2022/12/23 08:48:38;;;;;;;21.13;6.53;;;;;;;11.54;76.11;98808.88;5010038;28;20145;-79
2022/12/23 08:51:13;;;;;;;19.92;5.65;;;;;;;11.53;75.99;98809.84;5009877;28;20057;-79
2022/12/23 08:53:40;;;;;;;9.02;5.45;;;;;;;11.54;76.17;98802.75;5009899;28;20054;-79
2022/12/23 08:56:09;;;;;;;9.35;6.32;;;;;;;11.53;76.05;98807.19;4992212;28;20054;-80
2022/12/23 08:58:41;;;;;;;9.35;6.38;;;;;;;11.54;75.96;98795.69;5009953;28;20066;-79
2022/12/23 09:01:09;;;;;;;10.00;6.55;;;;;;;11.56;76.25;98796.41;5009771;28;20161;-80
2022/12/23 09:03:37;;;;;;;9.18;6.32;;;;;;;11.58;76.50;98796.28;5009976;28;20097;-79
2022/12/23 09:06:17;;;;;;;9.30;6.18;;;;;;;11.56;75.91;98795.56;5009524;28;20531;-79
2022/12/23 09:08:52;;;;;;;15.25;7.35;;;;;;;11.60;76.33;98797.03;5009482;28;20423;-79
2022/12/23 09:11:21;;;;;;;9.68;6.53;;;;;;;11.62;76.34;98794.28;5009779;28;20061;-79
2022/12/23 09:13:48;;;;;;;10.18;7.57;;;;;;;11.65;76.54;98802.78;5009746;28;20060;-79
2022/12/23 09:16:15;;;;;;;10.32;7.50;;;;;;;11.64;76.45;98801.09;5010856;28;20054;-79
2022/12/23 09:18:42;;;;;;;11.02;7.20;;;;;;;11.66;76.43;98783.34;5013510;28;20057;-79
2022/12/23 09:21:17;;;;;;;8.50;6.28;;;;;;;11.63;75.51;98790.66;5013541;28;20409;-79
2022/12/23 09:23:43;;;;;;;10.07;7.20;;;;;;;11.66;76.43;98796.53;5013801;28;20172;-79
2022/12/23 09:26:17;;;;;;;9.57;7.35;;;;;;;11.64;75.81;98789.69;5013465;28;20084;-79
2022/12/23 09:28:43;;;;;;;10.52;7.93;;;;;;;11.66;76.60;98788.63;5013459;28;20839;-79
2022/12/23 09:31:11;;;;;;;11.85;8.25;;;;;;;11.70;76.52;98791.88;5013508;28;20096;-79
2022/12/23 09:33:38;;;;;;;10.27;7.35;;;;;;;11.72;76.77;98795.22;4995955;28;20061;-79
2022/12/23 09:36:05;;;;;;;8.75;6.70;;;;;;;11.72;76.80;98800.50;5013423;28;20053;-79
2022/12/23 09:38:32;;;;;;;12.32;8.27;;;;;;;11.74;76.67;98806.50;5013432;28;20084;-80
2022/12/23 09:41:29;;;;;;;10.90;7.63;;;;;;;11.73;75.60;98797.75;5013184;28;20108;-79
2022/12/23 09:44:36;;;;;;;10.80;7.57;;;;;;;11.76;75.68;98806.38;5013210;28;20111;-79
2022/12/23 09:47:12;;;;;;;9.43;6.68;;;;;;;11.80;75.97;98795.47;5012819;28;20834;-79
2022/12/23 09:49:45;;;;;;;10.13;6.75;;;;;;;11.82;76.27;98796.19;5013190;28;20057;-79
2022/12/23 09:52:18;;;;;;;9.50;6.47;;;;;;;11.84;75.96;98785.50;5012979;28;20124;-79
2022/12/23 09:54:48;;;;;;;11.18;7.32;;;;;;;11.86;76.40;98784.44;5012892;28;20141;-79
2022/12/23 09:57:26;;;;;;;10.35;7.50;;;;;;;11.88;76.50;98776.41;5013082;28;20145;-79
2022/12/23 10:00:09;;;;;;;9.93;6.85;;;;;;;11.86;75.60;98779.16;5012805;28;20089;-79
2022/12/23 10:02:54;;;;;;;11.07;7.07;;;;;;;11.88;75.54;98778.22;5012803;28;20052;-79
2022/12/23 10:05:34;;;;;;;8.60;6.03;;;;;;;11.91;75.72;98783.22;4995066;28;20061;-79
2022/12/23 10:08:09;;;;;;;13.52;7.05;;;;;;;11.93;76.42;98778.69;4995226;28;20105;-79
2022/12/23 10:10:41;;;;;;;13.57;7.20;;;;;;;11.94;76.49;98773.31;5012774;28;20108;-79
2022/12/23 10:13:18;;;;;;;13.15;7.00;;;;;;;11.97;76.44;98773.03;5012573;28;20112;-79
2022/12/23 10:15:47;;;;;;;10.50;6.53;;;;;;;12.01;76.58;98767.53;5012768;28;20085;-79
2022/12/23 10:18:22;;;;;;;11.48;7.25;;;;;;;12.03;76.19;98758.53;5012562;28;20089;-79
2022/12/23 10:21:04;;;;;;;10.77;6.90;;;;;;;12.05;75.78;98766.34;5012621;28;20057;-80
2022/12/23 10:23:36;;;;;;;8.00;5.97;;;;;;;12.11;76.26;98758.81;5012463;28;20050;-80
2022/12/23 10:26:13;;;;;;;11.18;7.22;;;;;;;12.14;75.87;98760.34;5012557;28;20054;-79
2022/12/23 10:28:40;;;;;;;11.20;7.63;;;;;;;12.19;76.63;98757.34;5011769;28;20060;-80
2022/12/23 10:31:16;;;;;;;10.60;7.53;;;;;;;12.19;75.89;98767.91;5012389;28;20081;-79
2022/12/23 10:34:28;;;;;;;12.85;7.75;;;;;;;12.20;75.45;98756.38;5012105;28;20523;-79
2022/12/23 10:37:22;;;;;;;11.48;7.10;;;;;;;12.23;75.60;98749.06;5012066;28;20049;-80
2022/12/23 10:40:08;;;;;;;14.30;8.70;;;;;;;12.26;75.26;98745.31;5012220;28;20050;-79
2022/12/23 10:42:44;;;;;;;10.43;7.43;;;;;;;12.29;75.81;98739.00;5011812;28;20116;-79
2022/12/23 10:45:16;;;;;;;12.27;7.55;;;;;;;12.30;76.03;98736.22;5012239;28;20079;-80
2022/12/23 10:48:05;;;;;;;13.85;9.00;;;;;;;12.24;74.86;98736.72;5011739;28;20513;-79
2022/12/23 10:51:00;;;;;;;14.63;9.80;;;;;;;12.25;74.82;98738.38;5011831;28;20547;-79
2022/12/23 10:53:30;;;;;;;13.32;9.52;;;;;;;12.26;75.21;98742.69;5011796;28;20504;-79
2022/12/23 10:55:57;;;;;;;14.43;9.88;;;;;;;12.25;75.62;98735.75;5011598;28;20061;-79
2022/12/23 10:58:25;;;;;;;14.10;9.77;;;;;;;12.22;75.27;98734.19;5011587;28;20065;-79
2022/12/23 11:00:57;;;;;;;13.32;9.82;;;;;;;12.18;74.88;98739.84;5011760;28;20061;-79
2022/12/23 11:03:41;;;;;;;14.10;9.35;;;;;;;12.14;74.96;98736.59;5011657;28;20058;-79
2022/12/23 11:06:10;;;;;;;12.20;8.77;;;;;;;12.11;75.41;98732.41;5011750;28;20140;-79
2022/12/23 11:08:38;;;;;;;15.85;9.13;;;;;;;12.06;75.20;98731.97;5011435;28;20061;-79
2022/12/23 11:11:05;;;;;;;14.05;9.70;;;;;;;12.01;75.12;98722.69;5011335;28;20516;-79
2022/12/23 11:13:36;;;;;;;13.52;8.82;;;;;;;11.95;75.05;98710.84;5011362;28;20504;-79
2022/12/23 11:16:24;;;;;;;14.30;8.95;;;;;;;11.89;75.07;98698.16;5011012;28;20463;-79
2022/12/23 11:18:55;;;;;;;11.68;8.20;;;;;;;11.93;76.32;98697.75;4993962;28;20120;-79
2022/12/23 11:21:22;;;;;;;13.90;8.85;;;;;;;11.93;76.63;98686.41;4993917;28;20472;-79
2022/12/23 11:24:08;;;;;;;13.73;9.00;;;;;;;11.89;75.62;98680.50;5011444;28;20058;-79
2022/12/23 11:26:35;;;;;;;15.38;9.73;;;;;;;11.96;76.48;98680.88;5011221;28;20077;-79
2022/12/23 11:29:10;;;;;;;14.93;10.02;;;;;;;11.95;75.82;98669.50;5011085;28;20504;-80
2022/12/23 11:31:37;;;;;;;15.98;10.13;;;;;;;11.99;76.54;98670.06;5011241;28;20093;-79
2022/12/23 11:34:12;;;;;;;16.92;10.95;;;;;;;12.00;76.49;98671.75;5011074;28;20054;-79
2022/12/23 11:36:40;;;;;;;18.38;10.82;;;;;;;12.03;76.60;98674.13;5010740;28;20081;-79
2022/12/23 11:39:09;;;;;;;21.55;12.70;;;;;;;12.05;76.66;98664.34;5010512;28;20049;-79
2022/12/23 11:41:48;;;;;;;18.63;11.52;;;;;;;12.03;75.59;98666.22;5010641;28;20061;-79
2022/12/23 11:44:36;;;;;;;18.50;11.00;;;;;;;12.05;75.38;98669.63;5010923;28;20553;-79
2022/12/23 11:47:21;;;;;;;18.42;11.00;;;;;;;12.07;75.33;98665.03;5010398;28;20054;-80
2022/12/23 11:49:50;;;;;;;15.25;10.38;;;;;;;12.12;76.51;98662.88;5010747;28;20420;-79
2022/12/23 11:52:21;;;;;;;17.67;11.65;;;;;;;12.12;76.37;98643.59;5011099;28;20061;-79
2022/12/23 11:54:54;;;;;;;21.50;12.70;;;;;;;12.14;75.93;98640.81;5010707;28;20062;-79
2022/12/23 11:57:22;;;;;;;;;;;;;;;12.17;75.13;98635.28;5011019;28;20077;-79
2022/12/23 11:59:56;;;;;;;19.52;11.90;;;;;;;12.20;75.40;98629.75;5010759;28;19925;-79
2022/12/23 12:02:39;;;;;;;18.45;12.23;;;;;;;12.19;75.22;98634.19;5010684;28;20081;-79
2022/12/23 12:05:24;;;;;;;20.17;12.63;;;;;;;12.19;75.35;98631.53;5010433;28;20062;-79
2022/12/23 12:07:51;;;;;;;20.13;12.23;;;;;;;12.22;76.18;98625.19;5010132;28;20140;-79
2022/12/23 12:10:24;;;;;;;23.17;13.63;;;;;;;12.21;75.97;98619.09;5010541;28;20050;-79
2022/12/23 12:12:55;;;;;;;20.63;13.35;;;;;;;12.22;76.02;98614.63;5010397;28;20061;-80
2022/12/23 12:15:33;;;;;;;19.90;12.05;;;;;;;12.21;75.42;98607.69;5010321;28;20788;-79
2022/12/23 12:18:05;;;;;;;25.42;13.80;;;;;;;12.24;76.21;98610.06;5010271;28;20057;-79
2022/12/23 12:20:57;;;;;;;25.63;14.60;;;;;;;12.22;75.15;98606.72;5010312;28;20062;-79